Time;durP1;ratioP1;P1;durP2;ratioP2;P2;SDS_P1;SDS_P2;PMS_P1;PMS_P2;Temp;Humidity;BMP_temperature;BMP_pressure;BME280_temperature;BME280_humidity;BME280_pressure;Samples;Min_cycle;Max_cycle;Signal;HPM_P1;HPM_P2
2022/06/20 00:01:45;;;;;;;0.00;0.00;;;14.30;77.40;;;;;;5029866;28;20038;-70
2022/06/20 00:04:17;;;;;;;0.00;0.00;;;14.30;77.20;;;;;;5027190;28;20049;-70
2022/06/20 00:06:43;;;;;;;0.00;0.00;;;14.30;77.30;;;;;;5026308;28;20072;-70
2022/06/20 00:09:10;;;;;;;0.00;0.00;;;14.30;77.40;;;;;;5028930;28;20418;-70
2022/06/20 00:11:44;;;;;;;0.00;0.00;;;14.20;78.00;;;;;;5026361;28;20056;-69
2022/06/20 00:14:15;;;;;;;0.00;0.00;;;14.20;78.00;;;;;;5030371;28;20068;-70
2022/06/20 00:16:41;;;;;;;0.00;0.00;;;14.20;77.90;;;;;;5026020;28;20041;-70
2022/06/20 00:19:07;;;;;;;0.00;0.00;;;14.20;77.80;;;;;;5030054;28;20045;-70
2022/06/20 00:21:33;;;;;;;0.00;0.00;;;14.10;77.80;;;;;;5028061;28;20038;-70
2022/06/20 00:23:58;;;;;;;0.00;0.00;;;14.10;77.70;;;;;;5030137;28;20407;-70
2022/06/20 00:26:24;;;;;;;0.00;0.00;;;14.10;77.50;;;;;;5025964;28;20103;-70
2022/06/20 00:28:49;;;;;;;0.00;0.00;;;14.20;77.40;;;;;;5026022;28;20033;-70
2022/06/20 00:31:15;;;;;;;0.00;0.00;;;14.20;77.40;;;;;;5028836;28;20044;-69
2022/06/20 00:33:41;;;;;;;0.00;0.00;;;14.10;77.10;;;;;;5027751;28;20107;-70
2022/06/20 00:36:07;;;;;;;0.00;0.00;;;14.20;77.00;;;;;;5021209;28;20454;-70
2022/06/20 00:38:35;;;;;;;0.00;0.00;;;14.10;77.20;;;;;;5009626;28;20073;-70
2022/06/20 00:41:06;;;;;;;0.00;0.00;;;14.10;77.20;;;;;;5011113;28;20120;-69
2022/06/20 00:43:37;;;;;;;0.00;0.00;;;14.10;77.50;;;;;;5026754;28;20128;-70
2022/06/20 00:46:06;;;;;;;0.05;0.05;;;14.10;77.60;;;;;;5013032;28;20121;-70
2022/06/20 00:48:53;;;;;;;0.00;0.00;;;14.00;77.60;;;;;;5012705;28;20124;-70
2022/06/20 00:51:35;;;;;;;0.00;0.00;;;14.00;77.90;;;;;;5031656;28;20045;-69
2022/06/20 00:54:26;;;;;;;0.00;0.00;;;14.00;77.80;;;;;;5009496;28;20050;-70
2022/06/20 00:57:00;;;;;;;0.00;0.00;;;14.00;77.70;;;;;;5018663;28;20098;-69
2022/06/20 00:59:34;;;;;;;0.00;0.00;;;13.90;77.60;;;;;;5009264;28;20038;-69
2022/06/20 01:02:06;;;;;;;0.00;0.00;;;14.00;77.50;;;;;;5026045;28;20052;-69
2022/06/20 01:04:43;;;;;;;;;;;14.00;77.40;;;;;;5023911;28;20442;-70
2022/06/20 01:07:18;;;;;;;0.00;0.00;;;14.10;77.20;;;;;;5022193;28;19953;-70
2022/06/20 01:09:48;;;;;;;0.00;0.00;;;14.10;77.10;;;;;;5022779;28;20069;-70
2022/06/20 01:12:18;;;;;;;0.00;0.00;;;14.10;77.10;;;;;;5023522;28;20128;-70
2022/06/20 01:14:43;;;;;;;0.00;0.00;;;14.10;77.10;;;;;;5028580;28;20049;-69
2022/06/20 01:17:32;;;;;;;0.00;0.00;;;14.10;77.10;;;;;;5033760;28;20064;-70
2022/06/20 01:20:05;;;;;;;0.00;0.00;;;14.10;77.10;;;;;;5029282;28;20132;-69
2022/06/20 01:22:40;;;;;;;0.00;0.00;;;14.20;77.10;;;;;;5024450;28;20045;-69
2022/06/20 01:25:27;;;;;;;0.00;0.00;;;14.20;77.00;;;;;;5028715;28;20041;-70
2022/06/20 01:27:53;;;;;;;0.00;0.00;;;14.10;77.00;;;;;;5016559;28;20038;-70
2022/06/20 01:30:22;;;;;;;0.00;0.00;;;14.10;76.90;;;;;;5027403;28;20050;-70
2022/06/20 01:32:48;;;;;;;0.00;0.00;;;14.10;76.90;;;;;;5025603;28;20044;-70
2022/06/20 01:37:23;;;;;;;0.00;0.00;;;14.00;76.90;;;;;;5045639;28;20049;-70
2022/06/20 01:38:10;;;;;;;0.00;0.00;;;14.00;77.10;;;;;;5021273;28;20388;-70
2022/06/20 01:40:36;;;;;;;;;;;13.90;77.00;;;;;;5013001;28;20125;-70
2022/06/20 01:43:02;;;;;;;0.05;0.05;;;13.80;77.40;;;;;;5009400;28;20029;-70
2022/06/20 01:48:18;;;;;;;0.00;0.00;;;13.80;77.60;;;;;;5028537;28;20099;-70
2022/06/20 01:50:46;;;;;;;0.00;0.00;;;13.80;77.70;;;;;;5031101;28;20054;-69
2022/06/20 01:53:15;;;;;;;0.00;0.00;;;13.70;77.80;;;;;;5013647;28;20048;-70
2022/06/20 01:55:43;;;;;;;0.00;0.00;;;13.60;77.80;;;;;;5025350;28;20046;-70
2022/06/20 01:58:16;;;;;;;0.00;0.00;;;13.60;77.80;;;;;;5008908;28;20054;-70
2022/06/20 02:00:41;;;;;;;0.00;0.00;;;13.60;77.90;;;;;;5025659;28;20033;-70
2022/06/20 02:03:12;;;;;;;0.00;0.00;;;13.60;77.80;;;;;;5023118;28;20091;-70
2022/06/20 02:05:38;;;;;;;0.00;0.00;;;13.60;78.00;;;;;;5018809;28;20065;-69
2022/06/20 02:08:06;;;;;;;0.00;0.00;;;13.60;78.00;;;;;;5030894;28;20045;-70
2022/06/20 02:10:45;;;;;;;0.00;0.00;;;13.50;78.20;;;;;;5037221;28;20041;-70
2022/06/20 02:13:13;;;;;;;0.00;0.00;;;13.50;78.10;;;;;;5026816;28;20544;-69
2022/06/20 02:15:40;;;;;;;0.00;0.00;;;13.50;78.10;;;;;;5015521;28;20125;-70
2022/06/20 02:18:08;;;;;;;0.10;0.10;;;13.30;78.20;;;;;;5025293;28;20549;-69
2022/06/20 02:20:45;;;;;;;0.00;0.00;;;13.30;78.30;;;;;;5032166;28;20096;-70
2022/06/20 02:23:24;;;;;;;0.00;0.00;;;13.30;78.40;;;;;;5029784;28;20483;-70
2022/06/20 02:25:53;;;;;;;0.00;0.00;;;13.40;78.20;;;;;;5031509;28;20060;-70
2022/06/20 02:28:25;;;;;;;0.00;0.00;;;13.40;78.30;;;;;;5028226;28;20052;-70
2022/06/20 02:30:51;;;;;;;0.00;0.00;;;13.40;78.40;;;;;;5026467;28;20041;-70
2022/06/20 02:33:23;;;;;;;0.00;0.00;;;13.40;78.30;;;;;;5028808;28;20041;-70
2022/06/20 02:35:49;;;;;;;0.10;0.10;;;13.40;78.40;;;;;;5027984;28;20030;-70
2022/06/20 02:38:16;;;;;;;0.10;0.10;;;13.40;78.40;;;;;;5026412;28;20038;-70
2022/06/20 02:40:42;;;;;;;0.00;0.00;;;13.40;78.30;;;;;;5025590;28;20072;-70
2022/06/20 02:43:19;;;;;;;0.00;0.00;;;13.50;78.40;;;;;;5026914;28;20562;-70
2022/06/20 02:45:45;;;;;;;0.00;0.00;;;13.50;78.30;;;;;;5030888;28;20453;-70
2022/06/20 02:48:13;;;;;;;0.00;0.00;;;13.50;78.20;;;;;;5015797;28;20847;-70
2022/06/20 02:50:47;;;;;;;0.00;0.00;;;13.50;78.30;;;;;;5028561;28;20037;-70
2022/06/20 02:53:41;;;;;;;0.05;0.05;;;13.40;78.70;;;;;;5028664;28;20043;-70
2022/06/20 02:56:12;;;;;;;0.00;0.00;;;13.30;79.00;;;;;;5011093;28;20050;-70
2022/06/20 02:58:42;;;;;;;0.00;0.00;;;13.30;78.80;;;;;;5038242;28;20032;-70
2022/06/20 03:01:16;;;;;;;0.00;0.00;;;13.20;79.10;;;;;;5034258;28;20033;-70
2022/06/20 03:03:48;;;;;;;0.15;0.15;;;13.10;79.40;;;;;;5029911;28;20050;-70
2022/06/20 03:06:29;;;;;;;0.00;0.00;;;13.10;79.60;;;;;;5030069;28;20566;-70
2022/06/20 03:08:55;;;;;;;0.00;0.00;;;13.00;79.60;;;;;;5029813;28;20044;-70
2022/06/20 03:11:22;;;;;;;0.00;0.00;;;12.90;79.80;;;;;;5028154;28;20042;-70
2022/06/20 03:13:49;;;;;;;0.00;0.00;;;12.90;79.80;;;;;;5025443;28;20049;-70
2022/06/20 03:16:14;;;;;;;0.13;0.13;;;12.90;79.70;;;;;;5029694;28;20548;-70
2022/06/20 03:18:42;;;;;;;0.00;0.00;;;12.80;80.00;;;;;;5036038;28;20075;-70
2022/06/20 03:21:08;;;;;;;0.00;0.00;;;12.80;80.30;;;;;;5036869;28;20576;-70
2022/06/20 03:23:34;;;;;;;0.05;0.05;;;12.70;80.60;;;;;;5016639;28;20538;-70
2022/06/20 03:26:03;;;;;;;0.00;0.00;;;12.70;80.40;;;;;;5033855;28;20717;-70
2022/06/20 03:28:31;;;;;;;0.00;0.00;;;12.70;80.60;;;;;;5021479;28;20044;-71
2022/06/20 03:30:58;;;;;;;0.00;0.00;;;12.60;80.60;;;;;;5027116;28;20049;-71
2022/06/20 03:33:24;;;;;;;0.00;0.00;;;12.60;80.60;;;;;;5017431;28;20490;-70
2022/06/20 03:36:10;;;;;;;0.00;0.00;;;12.60;80.90;;;;;;5015785;28;20041;-70
2022/06/20 03:38:37;;;;;;;0.00;0.00;;;12.60;81.10;;;;;;5018688;28;20046;-70
2022/06/20 03:41:05;;;;;;;0.00;0.00;;;12.60;81.20;;;;;;5018215;28;20093;-70
2022/06/20 03:43:32;;;;;;;0.00;0.00;;;12.60;81.10;;;;;;5030476;28;20548;-71
2022/06/20 03:46:10;;;;;;;0.00;0.00;;;12.60;81.10;;;;;;5010402;28;20092;-71
2022/06/20 03:48:41;;;;;;;0.00;0.00;;;12.60;81.00;;;;;;5010574;28;20046;-70
2022/06/20 03:51:16;;;;;;;0.00;0.00;;;12.60;81.10;;;;;;5018586;28;20050;-71
2022/06/20 03:53:46;;;;;;;0.00;0.00;;;12.60;81.00;;;;;;5020183;28;20502;-71
2022/06/20 03:56:20;;;;;;;0.00;0.00;;;12.70;80.90;;;;;;5024014;28;20054;-70
2022/06/20 03:58:54;;;;;;;0.00;0.00;;;12.70;81.00;;;;;;5020373;28;20507;-70
2022/06/20 04:01:37;;;;;;;0.08;0.08;;;12.70;80.90;;;;;;5029095;28;20095;-71
2022/06/20 04:04:12;;;;;;;0.00;0.00;;;12.70;80.60;;;;;;5027206;28;20054;-70
2022/06/20 04:07:01;;;;;;;0.10;0.10;;;12.70;80.50;;;;;;5038949;28;20045;-70
2022/06/20 04:12:25;;;;;;;0.00;0.00;;;12.70;80.60;;;;;;5043887;28;20065;-70
2022/06/20 04:14:59;;;;;;;0.00;0.00;;;12.80;80.80;;;;;;5029147;28;20072;-70
2022/06/20 04:20:34;;;;;;;0.00;0.00;;;12.70;80.80;;;;;;5019595;28;20057;-70
2022/06/20 04:23:03;;;;;;;0.00;0.00;;;12.80;80.70;;;;;;5029518;28;20064;-70
2022/06/20 04:25:38;;;;;;;0.20;0.20;;;12.80;80.60;;;;;;5029471;28;20045;-70
2022/06/20 04:28:34;;;;;;;0.00;0.00;;;12.80;80.60;;;;;;5027403;28;20053;-70
2022/06/20 04:31:26;;;;;;;0.00;0.00;;;12.90;80.40;;;;;;5031816;28;20085;-70
2022/06/20 04:34:16;;;;;;;0.10;0.10;;;12.90;80.20;;;;;;5026635;28;20049;-70
2022/06/20 04:36:53;;;;;;;0.00;0.00;;;12.90;80.10;;;;;;5028952;28;20159;-70
2022/06/20 04:39:39;;;;;;;0.10;0.10;;;13.00;80.10;;;;;;5045731;28;20037;-70
2022/06/20 04:42:17;;;;;;;0.00;0.00;;;13.10;80.10;;;;;;5040552;28;20405;-71
2022/06/20 04:44:58;;;;;;;0.00;0.00;;;13.10;79.90;;;;;;5037622;28;20067;-70
2022/06/20 04:47:39;;;;;;;0.00;0.00;;;13.20;79.60;;;;;;5046999;28;20044;-70
2022/06/20 04:50:06;;;;;;;0.00;0.00;;;13.20;79.60;;;;;;5048905;28;20041;-70
2022/06/20 04:52:33;;;;;;;0.00;0.00;;;13.20;79.50;;;;;;5035998;28;20096;-70
2022/06/20 04:54:59;;;;;;;0.00;0.00;;;13.30;79.40;;;;;;5044783;28;20122;-70
2022/06/20 04:57:27;;;;;;;0.10;0.10;;;13.30;79.40;;;;;;5030725;28;20045;-70
2022/06/20 04:59:59;;;;;;;0.00;0.00;;;13.40;79.70;;;;;;5031625;28;20048;-70
2022/06/20 05:02:25;;;;;;;0.00;0.00;;;13.40;79.90;;;;;;5042490;28;20505;-70
2022/06/20 05:04:54;;;;;;;0.28;0.28;;;13.40;79.90;;;;;;5036432;28;20417;-70
2022/06/20 05:07:28;;;;;;;0.30;0.30;;;13.40;79.90;;;;;;5028784;28;20513;-71
2022/06/20 05:10:14;;;;;;;0.00;0.00;;;13.50;79.40;;;;;;5036594;28;20029;-70
2022/06/20 05:12:54;;;;;;;0.00;0.00;;;13.60;79.70;;;;;;5047410;28;20060;-70
2022/06/20 05:15:20;;;;;;;0.00;0.00;;;13.60;79.30;;;;;;5027770;28;20057;-70
2022/06/20 05:17:47;;;;;;;0.00;0.00;;;13.60;78.80;;;;;;5028455;28;20042;-70
2022/06/20 05:20:22;;;;;;;0.00;0.00;;;13.70;79.00;;;;;;5028779;28;20045;-71
2022/06/20 05:23:23;;;;;;;0.00;0.00;;;13.80;78.90;;;;;;5029349;28;20046;-71
2022/06/20 05:25:49;;;;;;;0.00;0.00;;;13.80;79.10;;;;;;5027651;28;20075;-71
2022/06/20 05:28:18;;;;;;;0.10;0.10;;;13.90;79.30;;;;;;5027605;28;20056;-72
2022/06/20 05:30:46;;;;;;;0.00;0.00;;;13.80;79.30;;;;;;5032400;28;20080;-72
2022/06/20 05:33:17;;;;;;;0.00;0.00;;;13.80;80.00;;;;;;5027311;28;20049;-73
2022/06/20 05:35:49;;;;;;;0.10;0.10;;;13.90;79.90;;;;;;5031602;28;20045;-72
2022/06/20 05:38:30;;;;;;;0.10;0.10;;;13.90;80.10;;;;;;5030626;28;20042;-71
2022/06/20 05:40:57;;;;;;;0.00;0.00;;;14.00;80.70;;;;;;5041059;28;20091;-70
2022/06/20 05:43:23;;;;;;;0.10;0.10;;;14.10;80.40;;;;;;5035021;28;20047;-70
2022/06/20 05:45:55;;;;;;;0.00;0.00;;;14.10;80.20;;;;;;5029645;28;20732;-70
2022/06/20 05:48:29;;;;;;;0.08;0.08;;;14.10;80.10;;;;;;5037157;28;20041;-71
2022/06/20 05:51:01;;;;;;;0.10;0.10;;;14.20;80.30;;;;;;5030502;28;20661;-70
2022/06/20 05:53:33;;;;;;;;;;;14.20;80.70;;;;;;5032132;28;20046;-70
2022/06/20 05:56:03;;;;;;;0.00;0.00;;;14.30;80.80;;;;;;5031101;28;19975;-73
2022/06/20 05:58:35;;;;;;;0.10;0.10;;;14.50;80.10;;;;;;5031892;28;20069;-73
2022/06/20 06:01:07;;;;;;;0.10;0.10;;;14.50;79.50;;;;;;5031882;28;20041;-71
2022/06/20 06:03:46;;;;;;;;;;;14.50;77.50;;;;;;5031398;28;20071;-73
2022/06/20 06:06:23;;;;;;;0.00;0.00;;;14.60;76.50;;;;;;5031657;28;19927;-73
2022/06/20 06:09:35;;;;;;;0.00;0.00;;;14.60;76.00;;;;;;5031500;28;20810;-75
2022/06/20 06:12:08;;;;;;;0.20;0.20;;;14.60;76.00;;;;;;5002741;28;20485;-74
2022/06/20 06:14:43;;;;;;;0.00;0.00;;;14.80;76.10;;;;;;5016594;28;20053;-75
2022/06/20 06:17:20;;;;;;;0.00;0.00;;;14.90;75.60;;;;;;5019994;28;20052;-75
2022/06/20 06:19:53;;;;;;;0.10;0.10;;;15.00;74.30;;;;;;5012131;28;20057;-75
2022/06/20 06:22:27;;;;;;;0.00;0.00;;;15.00;72.70;;;;;;5027747;28;20053;-73
2022/06/20 06:24:59;;;;;;;0.00;0.00;;;15.00;72.80;;;;;;5016809;28;20750;-73
2022/06/20 06:27:33;;;;;;;0.00;0.00;;;14.90;72.30;;;;;;5030818;28;20116;-73
2022/06/20 06:30:16;;;;;;;0.22;0.22;;;14.90;72.80;;;;;;5031172;28;20487;-73
2022/06/20 06:32:47;;;;;;;0.00;0.00;;;14.90;73.20;;;;;;5026832;28;20048;-73
2022/06/20 06:35:31;;;;;;;3.30;1.67;;;15.00;73.20;;;;;;5027958;28;20046;-75
2022/06/20 06:38:02;;;;;;;0.00;0.00;;;15.00;72.40;;;;;;5030327;28;20076;-71
2022/06/20 06:40:33;;;;;;;0.03;0.03;;;15.00;72.30;;;;;;5017844;28;20065;-72
2022/06/20 06:43:02;;;;;;;0.00;0.00;;;15.10;72.80;;;;;;5030397;28;20080;-71
2022/06/20 06:45:32;;;;;;;0.95;0.90;;;15.30;72.30;;;;;;5029608;28;20045;-69
2022/06/20 06:48:07;;;;;;;0.00;0.00;;;15.30;71.70;;;;;;5028837;28;20490;-69
2022/06/20 06:50:48;;;;;;;0.00;0.00;;;15.50;71.20;;;;;;5025358;28;20117;-68
2022/06/20 06:53:27;;;;;;;0.00;0.00;;;15.50;71.60;;;;;;5011690;28;20053;-69
2022/06/20 06:55:59;;;;;;;0.00;0.00;;;15.60;72.30;;;;;;5011504;28;20037;-69
2022/06/20 06:58:35;;;;;;;0.00;0.00;;;15.60;72.10;;;;;;5011394;28;20108;-69
2022/06/20 07:01:12;;;;;;;0.00;0.00;;;15.50;72.40;;;;;;5011607;28;20096;-69
2022/06/20 07:04:00;;;;;;;0.00;0.00;;;15.40;72.40;;;;;;5011572;28;20044;-69
2022/06/20 07:06:33;;;;;;;0.00;0.00;;;15.20;72.60;;;;;;5025053;28;20042;-69
2022/06/20 07:09:21;;;;;;;0.28;0.28;;;15.20;73.30;;;;;;5014080;28;20084;-69
2022/06/20 07:12:04;;;;;;;0.00;0.00;;;15.10;71.70;;;;;;5009900;28;20483;-69
2022/06/20 07:14:33;;;;;;;0.00;0.00;;;15.20;68.70;;;;;;5010984;28;20053;-70
2022/06/20 07:17:07;;;;;;;0.00;0.00;;;15.30;67.40;;;;;;5024990;28;20461;-68
2022/06/20 07:19:44;;;;;;;0.00;0.00;;;15.30;68.90;;;;;;5030706;28;20491;-70
2022/06/20 07:22:12;;;;;;;0.00;0.00;;;15.40;69.40;;;;;;5026703;28;20042;-70
2022/06/20 07:24:40;;;;;;;0.00;0.00;;;15.50;69.70;;;;;;5018683;28;20434;-70
2022/06/20 07:27:27;;;;;;;0.70;0.70;;;15.50;67.00;;;;;;5030503;28;20488;-70
2022/06/20 07:30:18;;;;;;;0.20;0.20;;;15.60;68.10;;;;;;5029222;28;20605;-71
2022/06/20 07:33:06;;;;;;;0.00;0.00;;;15.60;68.30;;;;;;5014364;28;20076;-70
2022/06/20 07:35:37;;;;;;;0.00;0.00;;;15.60;68.10;;;;;;5016250;28;20115;-71
2022/06/20 07:38:10;;;;;;;0.00;0.00;;;15.60;68.50;;;;;;5023586;28;20552;-70
2022/06/20 07:40:39;;;;;;;0.00;0.00;;;15.50;69.00;;;;;;5024606;28;20048;-70
2022/06/20 07:43:23;;;;;;;0.00;0.00;;;15.60;68.90;;;;;;5031479;28;20112;-70
2022/06/20 07:45:51;;;;;;;0.00;0.00;;;15.60;70.80;;;;;;5030338;28;20132;-70
2022/06/20 07:48:35;;;;;;;0.00;0.00;;;15.60;70.60;;;;;;5031121;28;20522;-70
2022/06/20 07:51:18;;;;;;;0.00;0.00;;;15.60;69.90;;;;;;5031163;28;20049;-70
2022/06/20 07:54:00;;;;;;;0.00;0.00;;;15.70;70.40;;;;;;5030716;28;20790;-70
2022/06/20 07:56:29;;;;;;;0.10;0.10;;;15.70;68.80;;;;;;5025689;28;20041;-70
2022/06/20 07:59:02;;;;;;;0.22;0.22;;;15.80;69.00;;;;;;5015910;28;20115;-70
2022/06/20 08:01:43;;;;;;;0.00;0.00;;;15.80;67.30;;;;;;5029743;28;20100;-70
2022/06/20 08:04:11;;;;;;;0.00;0.00;;;15.90;67.50;;;;;;5014480;28;20180;-70
2022/06/20 08:06:38;;;;;;;0.00;0.00;;;16.00;66.00;;;;;;5017071;28;20030;-70
2022/06/20 08:09:24;;;;;;;0.00;0.00;;;15.90;64.30;;;;;;5012597;28;20037;-70
2022/06/20 08:12:15;;;;;;;0.55;0.15;;;16.00;66.10;;;;;;5023610;28;20049;-70
2022/06/20 08:14:52;;;;;;;0.00;0.00;;;16.10;66.10;;;;;;5028263;28;20057;-71
2022/06/20 08:17:18;;;;;;;0.00;0.00;;;16.10;66.50;;;;;;5010694;28;20304;-71
2022/06/20 08:19:45;;;;;;;0.00;0.00;;;16.30;66.70;;;;;;5029875;28;20414;-72
2022/06/20 08:22:17;;;;;;;0.00;0.00;;;16.30;67.10;;;;;;5028735;28;20128;-72
2022/06/20 08:24:54;;;;;;;0.00;0.00;;;16.20;66.20;;;;;;5030180;28;20604;-72
2022/06/20 08:27:45;;;;;;;0.00;0.00;;;16.30;66.90;;;;;;5012641;28;20038;-72
2022/06/20 08:30:18;;;;;;;0.10;0.10;;;16.20;65.80;;;;;;5020856;28;20053;-76
2022/06/20 08:33:00;;;;;;;0.00;0.00;;;16.20;65.90;;;;;;5021007;28;20052;-74
2022/06/20 08:35:35;;;;;;;0.43;0.43;;;16.10;65.50;;;;;;5029829;28;20049;-74
2022/06/20 08:38:19;;;;;;;0.00;0.00;;;16.10;65.40;;;;;;5029785;28;20041;-74
2022/06/20 08:41:11;;;;;;;0.10;0.10;;;16.30;66.90;;;;;;5018151;28;20739;-74
2022/06/20 08:44:01;;;;;;;0.00;0.00;;;16.40;65.20;;;;;;5031126;28;20037;-76
2022/06/20 08:46:41;;;;;;;1.95;1.38;;;16.50;64.90;;;;;;5029066;28;20422;-75
2022/06/20 08:49:44;;;;;;;0.00;0.00;;;16.50;65.40;;;;;;5030066;28;20652;-75
2022/06/20 08:52:25;;;;;;;0.00;0.00;;;16.50;66.50;;;;;;5030241;28;20045;-75
2022/06/20 08:55:15;;;;;;;1.38;0.68;;;16.60;64.50;;;;;;5029696;28;20049;-75
2022/06/20 08:58:18;;;;;;;0.05;0.05;;;16.60;65.70;;;;;;5029856;28;20045;-75
2022/06/20 09:00:55;;;;;;;0.00;0.00;;;16.60;65.70;;;;;;5029847;28;20049;-74
2022/06/20 09:03:42;;;;;;;0.45;0.35;;;16.60;65.30;;;;;;5027898;28;20458;-75
2022/06/20 09:06:33;;;;;;;0.00;0.00;;;16.30;65.90;;;;;;5030122;28;20518;-74
2022/06/20 09:09:47;;;;;;;0.00;0.00;;;16.20;66.90;;;;;;5030332;28;20049;-74
2022/06/20 09:12:19;;;;;;;0.00;0.00;;;16.40;66.70;;;;;;5023366;28;20038;-73
2022/06/20 09:15:31;;;;;;;0.00;0.00;;;16.60;65.70;;;;;;5023967;28;20053;-74
2022/06/20 09:18:13;;;;;;;1.58;1.15;;;16.80;64.10;;;;;;5014186;28;20041;-74
2022/06/20 09:20:59;;;;;;;0.00;0.00;;;16.90;63.90;;;;;;5023881;28;20052;-74
2022/06/20 09:23:49;;;;;;;0.00;0.00;;;16.90;63.20;;;;;;5032631;28;20064;-72
2022/06/20 09:26:35;;;;;;;0.10;0.10;;;16.80;62.80;;;;;;5031350;28;20049;-72
2022/06/20 09:29:38;;;;;;;0.00;0.00;;;16.80;63.90;;;;;;5027023;28;20073;-71
2022/06/20 09:32:22;;;;;;;0.00;0.00;;;17.00;63.50;;;;;;5026162;28;20050;-72
2022/06/20 09:35:06;;;;;;;0.10;0.10;;;17.10;62.60;;;;;;5033251;28;20053;-72
2022/06/20 09:37:54;;;;;;;0.00;0.00;;;17.30;63.30;;;;;;5033598;28;20053;-73
2022/06/20 09:40:58;;;;;;;0.00;0.00;;;17.30;63.60;;;;;;5033804;28;20041;-72
2022/06/20 09:43:39;;;;;;;0.00;0.00;;;17.30;64.10;;;;;;5015372;28;20132;-72
2022/06/20 09:46:23;;;;;;;0.00;0.00;;;17.10;63.00;;;;;;5032447;28;20049;-72
2022/06/20 09:49:14;;;;;;;0.00;0.00;;;17.10;63.80;;;;;;5032494;28;20053;-76
2022/06/20 09:51:56;;;;;;;4.78;1.38;;;17.10;63.90;;;;;;5032486;28;20052;-72
2022/06/20 09:54:43;;;;;;;0.08;0.08;;;17.30;64.50;;;;;;5031634;28;20038;-71
2022/06/20 09:57:32;;;;;;;0.00;0.00;;;17.40;64.00;;;;;;5033167;28;20048;-71
2022/06/20 09:59:58;;;;;;;2.25;1.30;;;17.20;63.30;;;;;;5031859;28;20049;-71
2022/06/20 10:02:37;;;;;;;0.00;0.00;;;17.30;63.80;;;;;;5033374;28;20100;-71
2022/06/20 10:05:24;;;;;;;0.00;0.00;;;17.20;63.30;;;;;;5033290;28;20099;-71
2022/06/20 10:08:18;;;;;;;0.10;0.10;;;17.30;63.30;;;;;;5016895;28;20115;-72
2022/06/20 10:10:52;;;;;;;0.00;0.00;;;17.20;64.70;;;;;;5029973;28;20394;-70
2022/06/20 10:13:41;;;;;;;0.00;0.00;;;17.00;65.20;;;;;;5032101;28;20122;-69
2022/06/20 10:16:21;;;;;;;0.00;0.00;;;17.00;64.20;;;;;;5031738;28;20482;-71
2022/06/20 10:19:12;;;;;;;0.00;0.00;;;17.00;64.00;;;;;;5031535;28;20037;-71
2022/06/20 10:21:42;;;;;;;0.00;0.00;;;17.10;65.00;;;;;;5033492;28;20041;-71
2022/06/20 10:24:27;;;;;;;0.32;0.32;;;17.10;64.20;;;;;;5029630;28;20103;-71
2022/06/20 10:27:19;;;;;;;0.00;0.00;;;17.00;64.10;;;;;;5031423;28;20410;-72
2022/06/20 10:29:55;;;;;;;0.00;0.00;;;17.10;65.10;;;;;;5031644;28;20128;-71
2022/06/20 10:32:34;;;;;;;0.30;0.30;;;17.10;63.70;;;;;;5029339;28;20120;-71
2022/06/20 10:35:17;;;;;;;0.00;0.00;;;17.10;64.50;;;;;;5032947;28;20052;-70
2022/06/20 10:38:21;;;;;;;0.00;0.00;;;17.30;64.60;;;;;;5031805;28;20045;-70
2022/06/20 10:40:53;;;;;;;0.00;0.00;;;17.50;62.90;;;;;;5032644;28;20048;-71
2022/06/20 10:43:40;;;;;;;0.00;0.00;;;17.60;63.30;;;;;;5051397;28;20048;-69
2022/06/20 10:46:11;;;;;;;1.17;1.08;;;17.50;63.00;;;;;;5041820;28;20065;-69
2022/06/20 10:48:50;;;;;;;0.00;0.00;;;17.30;64.40;;;;;;5015104;28;20037;-71
2022/06/20 10:51:46;;;;;;;0.38;0.38;;;17.20;64.00;;;;;;5031233;28;20124;-71
2022/06/20 10:54:20;;;;;;;2.08;1.65;;;17.30;62.10;;;;;;5045038;28;20053;-71
2022/06/20 10:56:54;;;;;;;0.00;0.00;;;17.30;63.60;;;;;;5046813;28;20048;-71
2022/06/20 10:59:58;;;;;;;0.00;0.00;;;17.20;63.00;;;;;;5015130;28;20041;-71
2022/06/20 11:03:14;;;;;;;0.00;0.00;;;17.20;61.70;;;;;;5030989;28;20045;-71
2022/06/20 11:05:52;;;;;;;0.00;0.00;;;17.20;61.20;;;;;;5027981;28;20116;-71
2022/06/20 11:08:39;;;;;;;0.00;0.00;;;17.40;60.70;;;;;;5025743;28;20123;-72
2022/06/20 11:11:16;;;;;;;0.00;0.00;;;17.60;61.60;;;;;;5040914;28;20112;-72
2022/06/20 11:14:02;;;;;;;0.00;0.00;;;17.60;59.60;;;;;;5031176;28;20057;-72
2022/06/20 11:16:52;;;;;;;0.63;0.47;;;17.80;60.00;;;;;;5038293;28;20052;-72
2022/06/20 11:19:45;;;;;;;0.00;0.00;;;18.00;61.40;;;;;;5029737;28;20102;-71
2022/06/20 11:22:29;;;;;;;0.00;0.00;;;18.00;60.70;;;;;;5021854;28;20504;-71
2022/06/20 11:25:09;;;;;;;0.00;0.00;;;18.00;59.90;;;;;;5029969;28;20466;-71
2022/06/20 11:28:13;;;;;;;0.00;0.00;;;17.80;61.70;;;;;;5027790;28;20564;-71
2022/06/20 11:31:16;;;;;;;0.00;0.00;;;17.60;62.00;;;;;;5035613;28;20049;-70
2022/06/20 11:34:15;;;;;;;0.00;0.00;;;17.50;62.50;;;;;;5000170;28;20053;-71
2022/06/20 11:37:14;;;;;;;0.50;0.50;;;17.50;61.80;;;;;;5031209;28;20042;-71
2022/06/20 11:40:14;;;;;;;0.00;0.00;;;17.60;61.30;;;;;;5039693;28;20050;-72
2022/06/20 11:43:21;;;;;;;0.00;0.00;;;17.60;61.60;;;;;;5020619;28;20091;-72
2022/06/20 11:46:02;;;;;;;0.00;0.00;;;17.70;63.70;;;;;;5033206;28;20044;-71
2022/06/20 11:48:54;;;;;;;0.00;0.00;;;17.70;62.30;;;;;;5029741;28;20041;-70
2022/06/20 11:51:53;;;;;;;0.00;0.00;;;17.50;60.10;;;;;;5017308;28;20054;-72
2022/06/20 11:54:50;;;;;;;0.00;0.00;;;17.50;60.50;;;;;;5028872;28;20045;-68
2022/06/20 11:57:28;;;;;;;0.00;0.00;;;17.40;61.20;;;;;;5009096;28;20046;-69
2022/06/20 12:00:09;;;;;;;0.00;0.00;;;17.30;61.10;;;;;;5022198;28;20041;-68
2022/06/20 12:02:52;;;;;;;0.00;0.00;;;17.30;61.40;;;;;;5029820;28;20418;-68
2022/06/20 12:05:17;;;;;;;0.10;0.10;;;17.30;61.90;;;;;;5028847;28;20178;-69
2022/06/20 12:08:07;;;;;;;0.00;0.00;;;17.20;62.70;;;;;;5029491;28;20916;-68
2022/06/20 12:10:47;;;;;;;0.00;0.00;;;17.10;63.10;;;;;;5053568;28;20111;-69
2022/06/20 12:13:45;;;;;;;0.30;0.30;;;17.10;63.10;;;;;;5028749;28;20057;-69
2022/06/20 12:16:38;;;;;;;0.30;0.30;;;17.10;63.40;;;;;;5021488;28;20045;-70
2022/06/20 12:25:17;;;;;;;0.00;0.00;;;17.60;59.40;;;;;;5030192;28;20049;-70
2022/06/20 12:27:46;;;;;;;0.00;0.00;;;17.80;60.10;;;;;;5023310;28;20049;-70
2022/06/20 12:30:15;;;;;;;0.00;0.00;;;18.00;60.30;;;;;;5028744;28;20041;-69
2022/06/20 12:32:44;;;;;;;0.08;0.08;;;18.00;59.40;;;;;;5029372;28;20050;-69
2022/06/20 12:35:35;;;;;;;0.00;0.00;;;17.90;59.30;;;;;;5031660;28;20046;-70
2022/06/20 12:38:36;;;;;;;0.00;0.00;;;17.80;59.50;;;;;;5011049;28;20402;-70
2022/06/20 12:41:06;;;;;;;0.40;0.32;;;18.00;60.30;;;;;;5023142;28;20781;-70
2022/06/20 12:44:14;;;;;;;0.15;0.15;;;18.10;60.40;;;;;;5029329;28;20506;-70
2022/06/20 12:47:06;;;;;;;0.00;0.00;;;18.00;61.90;;;;;;5025729;28;20037;-69
2022/06/20 12:49:37;;;;;;;1.98;0.93;;;17.90;61.20;;;;;;5027853;28;20487;-70
2022/06/20 12:52:17;;;;;;;0.00;0.00;;;17.80;61.80;;;;;;5028012;28;20064;-71
2022/06/20 12:54:46;;;;;;;0.03;0.03;;;17.50;62.30;;;;;;5027951;28;20041;-70
2022/06/20 12:57:44;;;;;;;0.00;0.00;;;17.50;62.00;;;;;;5027101;28;20041;-70
2022/06/20 13:00:37;;;;;;;0.10;0.10;;;17.50;62.30;;;;;;5027387;28;20041;-70
2022/06/20 13:03:29;;;;;;;0.00;0.00;;;17.60;61.90;;;;;;5027638;28;20073;-70
2022/06/20 13:06:21;;;;;;;1.98;1.23;;;17.90;61.40;;;;;;5026557;28;20065;-71
2022/06/20 13:09:01;;;;;;;0.00;0.00;;;18.10;59.80;;;;;;5027630;28;20056;-72
2022/06/20 13:11:43;;;;;;;0.00;0.00;;;18.10;58.90;;;;;;5009416;28;20037;-70
2022/06/20 13:14:34;;;;;;;0.00;0.00;;;18.20;58.80;;;;;;5028694;28;20053;-68
2022/06/20 13:17:23;;;;;;;0.00;0.00;;;18.40;58.40;;;;;;5027684;28;20060;-70
2022/06/20 13:20:02;;;;;;;0.28;0.13;;;18.30;57.80;;;;;;5026300;28;20041;-70
2022/06/20 13:22:33;;;;;;;0.00;0.00;;;18.50;58.10;;;;;;5028461;28;20128;-68
2022/06/20 13:25:15;;;;;;;0.00;0.00;;;18.50;57.50;;;;;;5011104;28;20050;-69
2022/06/20 13:27:43;;;;;;;;;;;18.50;56.50;;;;;;5028823;28;20050;-70
2022/06/20 13:30:44;;;;;;;0.00;0.00;;;18.50;57.60;;;;;;5009427;28;20401;-71
2022/06/20 13:33:24;;;;;;;0.00;0.00;;;18.50;57.30;;;;;;5019382;28;20124;-72
2022/06/20 13:36:00;;;;;;;0.00;0.00;;;18.40;57.20;;;;;;5028817;28;21125;-70
2022/06/20 13:38:44;;;;;;;0.00;0.00;;;18.50;55.90;;;;;;5027556;28;20474;-71
2022/06/20 13:41:21;;;;;;;0.00;0.00;;;18.50;55.80;;;;;;5028820;28;20077;-72
2022/06/20 13:43:52;;;;;;;0.00;0.00;;;18.70;56.00;;;;;;5028479;28;20052;-71
2022/06/20 13:46:28;;;;;;;0.00;0.00;;;18.60;55.60;;;;;;5029098;28;20054;-75
2022/06/20 13:49:16;;;;;;;6.40;1.75;;;18.70;56.20;;;;;;5028488;28;20051;-74
2022/06/20 13:51:54;;;;;;;0.00;0.00;;;18.40;56.40;;;;;;5011022;28;20056;-74
2022/06/20 13:54:34;;;;;;;0.00;0.00;;;18.50;57.50;;;;;;5028343;28;20053;-74
2022/06/20 13:57:02;;;;;;;0.00;0.00;;;18.50;58.80;;;;;;5031779;28;20050;-74
2022/06/20 13:59:50;;;;;;;0.00;0.00;;;18.20;60.60;;;;;;5032206;28;20529;-74